createdAt,value
2024-05-09T00:00:49.366Z,8.10
2024-05-09T00:03:19.150Z,8.10
2024-05-09T00:05:48.949Z,8.10
2024-05-09T00:08:21.363Z,8.10
2024-05-09T00:10:51.203Z,8.00
2024-05-09T00:13:21.023Z,8.00
2024-05-09T00:15:50.816Z,8.00
2024-05-09T00:18:20.697Z,8.00
2024-05-09T00:20:50.638Z,8.00
2024-05-09T00:23:22.985Z,8.00
2024-05-09T00:25:52.799Z,8.00
2024-05-09T00:28:23.303Z,7.90
2024-05-09T00:30:53.406Z,7.80
2024-05-09T00:33:23.363Z,7.70
2024-05-09T00:35:53.582Z,7.50
2024-05-09T00:38:26.405Z,7.50
2024-05-09T00:40:56.434Z,7.40
2024-05-09T00:43:26.518Z,7.40
2024-05-09T00:45:57.475Z,7.40
2024-05-09T00:48:29.522Z,7.40
2024-05-09T00:51:00.550Z,7.30
2024-05-09T00:53:33.956Z,7.30
2024-05-09T00:56:04.640Z,7.30
2024-05-09T00:58:35.070Z,7.30
2024-05-09T01:01:05.541Z,7.30
2024-05-09T01:03:35.563Z,7.30
2024-05-09T01:06:05.541Z,7.30
2024-05-09T01:08:38.313Z,7.30
2024-05-09T01:11:08.304Z,7.30
2024-05-09T01:13:38.037Z,7.30
2024-05-09T01:16:08.480Z,7.30
2024-05-09T01:18:38.380Z,7.40
2024-05-09T01:21:10.230Z,7.40
2024-05-09T01:23:42.684Z,7.40
2024-05-09T01:26:12.699Z,7.40
2024-05-09T01:28:42.493Z,7.40
2024-05-09T01:31:15.828Z,7.40
2024-05-09T01:33:46.318Z,7.30
2024-05-09T01:36:16.446Z,7.30
2024-05-09T01:38:49.258Z,7.30
2024-05-09T01:41:19.207Z,7.30
2024-05-09T01:43:49.032Z,7.20
2024-05-09T01:46:19.520Z,7.20
2024-05-09T01:49:25.341Z,7.20
2024-05-09T01:51:56.693Z,7.20
2024-05-09T01:54:31.498Z,7.10
2024-05-09T01:57:01.308Z,7.10
2024-05-09T01:59:31.228Z,7.10
2024-05-09T02:02:01.382Z,7.10
2024-05-09T02:04:31.492Z,7.00
2024-05-09T02:07:01.283Z,6.90
2024-05-09T02:09:33.675Z,6.80
2024-05-09T02:12:03.530Z,6.70
2024-05-09T02:14:33.307Z,6.70
2024-05-09T02:17:03.056Z,6.60
2024-05-09T02:19:33.090Z,6.70
2024-05-09T02:22:03.334Z,6.70
2024-05-09T02:24:35.927Z,6.70
2024-05-09T02:27:05.848Z,6.70
2024-05-09T02:29:36.042Z,6.70
2024-05-09T02:32:06.112Z,6.70
2024-05-09T02:34:36.358Z,6.60
2024-05-09T02:37:04.332Z,6.60
2024-05-09T02:39:38.104Z,6.50
2024-05-09T02:42:05.747Z,6.40
2024-05-09T02:44:35.646Z,6.40
2024-05-09T02:47:03.352Z,6.30
2024-05-09T02:49:34.088Z,6.30
2024-05-09T02:52:01.271Z,6.30
2024-05-09T02:54:31.181Z,6.40
2024-05-09T02:57:00.903Z,6.40
2024-05-09T02:59:30.824Z,6.30
2024-05-09T03:01:58.055Z,6.20
2024-05-09T03:04:28.070Z,6.10
2024-05-09T03:06:55.307Z,6.10
2024-05-09T03:09:26.652Z,6.10
2024-05-09T03:11:53.924Z,6.10
2024-05-09T03:14:26.389Z,6.10
2024-05-09T03:16:53.918Z,6.10
2024-05-09T03:19:24.062Z,6.10
2024-05-09T03:21:51.208Z,6.10
2024-05-09T03:24:21.052Z,6.10
2024-05-09T03:26:48.464Z,6.20
2024-05-09T03:29:18.320Z,6.20
2024-05-09T03:31:48.124Z,6.20
2024-05-09T03:34:17.937Z,6.20
2024-05-09T03:36:48.167Z,6.20
2024-05-09T03:39:17.803Z,6.20
2024-05-09T03:41:47.465Z,6.20
2024-05-09T03:44:21.484Z,6.20
2024-05-09T03:46:53.752Z,6.20
2024-05-09T03:49:22.537Z,6.30
2024-05-09T03:51:52.327Z,6.30
2024-05-09T03:54:19.475Z,6.30
2024-05-09T03:56:49.178Z,6.20
2024-05-09T03:59:16.283Z,6.10
2024-05-09T04:01:46.116Z,6.10
2024-05-09T04:04:16.007Z,6.00
2024-05-09T04:06:49.775Z,6.00
2024-05-09T04:09:21.235Z,6.00
2024-05-09T04:11:52.440Z,5.90
2024-05-09T04:14:20.968Z,5.90
2024-05-09T04:16:51.550Z,5.90
2024-05-09T04:19:22.140Z,6.00
2024-05-09T04:22:07.653Z,6.20
2024-05-09T04:24:46.690Z,6.50
2024-05-09T04:27:23.882Z,6.80
2024-05-09T04:30:06.189Z,7.10
2024-05-09T04:32:39.893Z,7.30
2024-05-09T04:35:10.602Z,7.50
2024-05-09T04:37:42.100Z,7.90
2024-05-09T04:40:20.497Z,8.00
2024-05-09T04:42:55.302Z,8.30
2024-05-09T04:45:23.318Z,8.60
2024-05-09T04:47:54.824Z,8.70
2024-05-09T04:50:33.910Z,8.90
2024-05-09T04:53:10.088Z,9.30
2024-05-09T04:55:38.578Z,9.50
2024-05-09T04:58:11.715Z,9.70
2024-05-09T05:00:40.282Z,10.00
2024-05-09T05:03:14.608Z,10.20
2024-05-09T05:05:46.261Z,10.40
2024-05-09T05:08:24.008Z,10.70
2024-05-09T05:10:57.959Z,10.90
2024-05-09T05:13:39.443Z,11.10
2024-05-09T05:16:08.196Z,11.20
2024-05-09T05:18:38.125Z,11.40
2024-05-09T05:21:09.154Z,11.50
2024-05-09T05:23:41.010Z,11.60
2024-05-09T05:26:08.531Z,11.80
2024-05-09T05:28:38.751Z,12.00
2024-05-09T05:31:06.154Z,12.20
2024-05-09T05:33:36.292Z,12.40
2024-05-09T05:36:03.642Z,12.60
2024-05-09T05:38:35.984Z,12.80
2024-05-09T05:41:03.109Z,13.00
2024-05-09T05:43:33.199Z,13.10
2024-05-09T05:46:00.310Z,13.00
2024-05-09T05:48:30.795Z,13.20
2024-05-09T05:50:59.446Z,13.40
2024-05-09T05:53:31.115Z,13.60
2024-05-09T05:56:01.034Z,13.70
2024-05-09T05:58:31.067Z,13.90
2024-05-09T06:00:58.237Z,14.00
2024-05-09T06:03:28.663Z,14.20
2024-05-09T06:05:55.828Z,14.30
2024-05-09T06:08:28.004Z,14.50
2024-05-09T06:10:57.199Z,14.80
2024-05-09T06:13:29.707Z,15.00
2024-05-09T06:15:57.015Z,15.20
2024-05-09T06:18:26.984Z,15.50
2024-05-09T06:20:54.324Z,15.70
2024-05-09T06:23:24.195Z,15.90
2024-05-09T06:25:51.382Z,16.00
2024-05-09T06:28:21.162Z,16.20
2024-05-09T06:30:51.135Z,16.40
2024-05-09T06:33:21.070Z,16.70
2024-05-09T06:35:48.317Z,16.80
2024-05-09T06:38:18.267Z,17.00
2024-05-09T06:40:45.793Z,17.20
2024-05-09T06:43:17.903Z,17.30
2024-05-09T06:45:47.708Z,17.50
2024-05-09T06:48:22.272Z,17.70
2024-05-09T06:50:50.577Z,17.90
2024-05-09T06:53:23.886Z,18.00
2024-05-09T06:55:51.355Z,18.20
2024-05-09T06:58:21.466Z,18.40
2024-05-09T07:00:48.746Z,18.70
2024-05-09T07:03:21.301Z,19.00
2024-05-09T07:05:49.602Z,19.10
2024-05-09T07:08:19.867Z,19.50
2024-05-09T07:10:48.347Z,19.80
2024-05-09T07:13:18.567Z,19.90
2024-05-09T07:15:46.020Z,19.90
2024-05-09T07:18:18.459Z,20.00
2024-05-09T07:20:50.541Z,20.10
2024-05-09T07:23:21.011Z,20.20
2024-05-09T07:25:48.449Z,20.30
2024-05-09T07:28:19.345Z,20.50
2024-05-09T07:30:46.560Z,20.60
2024-05-09T07:33:20.035Z,20.90
2024-05-09T07:35:51.276Z,21.20
2024-05-09T07:38:21.161Z,21.30
2024-05-09T07:40:48.513Z,20.80
2024-05-09T07:43:18.643Z,21.00
2024-05-09T07:45:52.330Z,21.10
2024-05-09T07:52:45.992Z,21.60
2024-05-09T07:53:51.331Z,21.50
2024-05-09T07:56:22.798Z,21.70
2024-05-09T07:58:55.489Z,21.80
2024-05-09T08:01:25.835Z,22.10
2024-05-09T08:03:56.122Z,22.10
2024-05-09T08:06:26.825Z,22.40
2024-05-09T08:08:57.877Z,22.10
2024-05-09T08:11:26.395Z,21.80
2024-05-09T08:13:56.096Z,22.20
2024-05-09T08:16:23.515Z,22.50
2024-05-09T08:18:53.576Z,22.80
2024-05-09T08:21:20.762Z,22.70
2024-05-09T08:23:53.157Z,22.30
2024-05-09T08:26:20.354Z,21.70
2024-05-09T08:28:50.248Z,21.70
2024-05-09T08:31:17.478Z,21.50
2024-05-09T08:33:49.084Z,21.50
2024-05-09T08:36:16.296Z,21.80
2024-05-09T08:38:46.047Z,22.30
2024-05-09T08:41:16.307Z,22.60
2024-05-09T08:43:47.344Z,22.90
2024-05-09T08:46:14.732Z,23.00
2024-05-09T08:48:46.547Z,23.30
2024-05-09T08:51:14.795Z,23.90
2024-05-09T08:53:44.822Z,24.10
2024-05-09T08:56:13.098Z,24.30
2024-05-09T08:58:47.308Z,24.10
2024-05-09T09:01:15.651Z,24.30
2024-05-09T09:03:46.357Z,24.10
2024-05-09T09:06:15.207Z,23.30
2024-05-09T09:08:45.134Z,23.10
2024-05-09T09:11:12.209Z,23.20
2024-05-09T09:13:41.930Z,23.70
2024-05-09T09:16:12.981Z,23.90
2024-05-09T09:18:46.902Z,23.50
2024-05-09T09:21:14.217Z,22.90
2024-05-09T09:23:43.943Z,22.40
2024-05-09T09:26:15.958Z,21.90
2024-05-09T09:28:45.757Z,22.40
2024-05-09T09:31:18.448Z,23.10
2024-05-09T09:33:48.601Z,22.80
2024-05-09T09:36:18.592Z,22.10
2024-05-09T09:38:50.968Z,21.70
2024-05-09T09:41:20.981Z,21.90
2024-05-09T09:43:51.034Z,22.40
2024-05-09T09:46:21.332Z,22.10
2024-05-09T09:48:52.279Z,22.40
2024-05-09T09:51:20.994Z,22.50
2024-05-09T09:53:53.578Z,22.10
2024-05-09T09:56:21.876Z,21.80
2024-05-09T09:58:52.846Z,21.60
2024-05-09T10:01:22.805Z,22.10
2024-05-09T10:03:52.850Z,22.30
2024-05-09T10:06:20.575Z,21.90
2024-05-09T10:08:51.680Z,22.00
2024-05-09T10:11:20.574Z,21.70
2024-05-09T10:13:50.481Z,22.00
2024-05-09T10:16:23.285Z,22.80
2024-05-09T10:18:53.270Z,23.20
2024-05-09T10:21:20.848Z,23.40
2024-05-09T10:24:01.180Z,23.70
2024-05-09T10:26:32.977Z,23.40
2024-05-09T10:29:03.515Z,22.60
2024-05-09T10:31:34.049Z,22.50
2024-05-09T10:34:05.433Z,22.00
2024-05-09T10:36:32.869Z,21.90
2024-05-09T10:39:02.710Z,22.50
2024-05-09T10:41:29.814Z,22.70
2024-05-09T10:43:59.694Z,23.30
2024-05-09T10:46:27.853Z,24.00
2024-05-09T10:49:04.224Z,24.10
2024-05-09T10:51:33.470Z,23.20
2024-05-09T10:54:03.465Z,23.60
2024-05-09T10:56:30.732Z,23.60
2024-05-09T10:59:00.592Z,23.30
2024-05-09T11:01:28.669Z,23.40
2024-05-09T11:04:03.657Z,23.60
2024-05-09T11:06:31.143Z,23.60
2024-05-09T11:09:01.345Z,23.40
2024-05-09T11:11:29.441Z,23.40
2024-05-09T11:13:59.192Z,23.40
2024-05-09T11:16:26.446Z,23.30
2024-05-09T11:18:58.782Z,23.30
2024-05-09T11:21:29.466Z,23.10
2024-05-09T11:24:00.383Z,22.80
2024-05-09T11:26:29.749Z,22.80
2024-05-09T11:28:59.579Z,22.70
2024-05-09T11:31:27.339Z,22.70
2024-05-09T11:33:58.487Z,22.40
2024-05-09T11:36:28.939Z,22.50
2024-05-09T11:38:59.095Z,22.60
2024-05-09T11:41:27.532Z,22.10
2024-05-09T11:43:58.328Z,21.90
2024-05-09T11:46:26.311Z,21.90
2024-05-09T11:48:57.031Z,21.80
2024-05-09T11:51:32.917Z,21.80
2024-05-09T11:54:04.522Z,21.50
2024-05-09T11:56:33.742Z,20.90
2024-05-09T11:59:05.565Z,20.90
2024-05-09T12:01:33.070Z,20.90
2024-05-09T12:04:05.214Z,21.30
2024-05-09T12:06:36.244Z,21.70
2024-05-09T12:09:06.076Z,22.40
2024-05-09T12:11:33.352Z,23.10
2024-05-09T12:14:03.155Z,23.80
2024-05-09T12:16:30.496Z,23.80
2024-05-09T12:19:00.592Z,23.50
2024-05-09T12:21:28.147Z,23.20
2024-05-09T12:24:01.222Z,23.00
2024-05-09T12:26:28.785Z,23.10
2024-05-09T12:28:58.911Z,23.80
2024-05-09T12:31:26.402Z,24.00
2024-05-09T12:33:56.625Z,24.40
2024-05-09T12:36:24.123Z,25.00
2024-05-09T12:38:54.116Z,25.40
2024-05-09T12:41:24.288Z,25.40
2024-05-09T12:43:54.411Z,24.80
2024-05-09T12:46:23.450Z,25.10
2024-05-09T12:48:54.040Z,25.10
2024-05-09T12:51:22.759Z,24.60
2024-05-09T12:53:53.927Z,24.10
2024-05-09T12:56:24.354Z,24.00
2024-05-09T12:58:55.061Z,24.50
2024-05-09T13:01:22.420Z,24.70
2024-05-09T13:03:52.692Z,25.30
2024-05-09T13:06:20.112Z,26.20
2024-05-09T13:08:50.131Z,26.80
2024-05-09T13:11:17.548Z,26.90
2024-05-09T13:13:50.209Z,27.60
2024-05-09T13:16:17.703Z,27.80
2024-05-09T13:18:47.642Z,27.40
2024-05-09T13:21:14.842Z,26.90
2024-05-09T13:23:44.532Z,25.80
2024-05-09T13:26:11.727Z,24.70
2024-05-09T13:28:41.416Z,23.90
2024-05-09T13:31:11.179Z,23.70
2024-05-09T13:33:41.053Z,23.80
2024-05-09T13:36:08.689Z,23.50
2024-05-09T13:38:38.348Z,23.60
2024-05-09T13:41:05.661Z,23.60
2024-05-09T13:43:35.347Z,24.00
2024-05-09T13:46:02.529Z,24.20
2024-05-09T13:48:35.076Z,24.40
2024-05-09T13:51:02.330Z,24.80
2024-05-09T13:53:32.010Z,24.40
2024-05-09T13:55:59.117Z,24.10
2024-05-09T13:58:28.849Z,23.70
2024-05-09T14:00:56.193Z,23.30
2024-05-09T14:03:27.131Z,22.90
2024-05-09T14:05:57.111Z,22.80
2024-05-09T14:08:26.935Z,23.10
2024-05-09T14:10:54.197Z,23.40
2024-05-09T14:13:24.256Z,23.70
2024-05-09T14:15:51.703Z,23.80
2024-05-09T14:18:21.738Z,24.00
2024-05-09T14:20:48.934Z,23.90
2024-05-09T14:23:21.651Z,23.40
2024-05-09T14:25:52.070Z,23.40
2024-05-09T14:28:22.728Z,23.60
2024-05-09T14:30:50.619Z,23.30
2024-05-09T14:33:26.754Z,22.90
2024-05-09T14:35:54.624Z,22.50
2024-05-09T14:38:27.261Z,22.30
2024-05-09T14:40:54.421Z,22.30
2024-05-09T14:43:24.504Z,22.40
2024-05-09T14:45:51.715Z,22.50
2024-05-09T14:48:22.395Z,22.60
2024-05-09T14:50:49.624Z,22.60
2024-05-09T14:53:19.399Z,22.50
2024-05-09T14:55:49.818Z,22.40
2024-05-09T14:58:19.905Z,22.50
2024-05-09T15:00:50.320Z,22.60
2024-05-09T15:03:22.327Z,22.50
2024-05-09T15:05:50.514Z,22.50
2024-05-09T15:08:21.246Z,22.50
2024-05-09T15:10:51.235Z,22.50
2024-05-09T15:13:21.528Z,22.60
2024-05-09T15:15:48.967Z,22.60
2024-05-09T15:18:19.480Z,22.50
2024-05-09T15:20:47.130Z,22.00
2024-05-09T15:23:16.872Z,21.40
2024-05-09T15:25:44.880Z,21.10
2024-05-09T15:28:17.594Z,20.70
2024-05-09T15:30:46.584Z,20.60
2024-05-09T15:33:17.219Z,20.50
2024-05-09T15:35:46.622Z,20.30
2024-05-09T15:38:18.373Z,20.20
2024-05-09T15:40:45.982Z,20.20
2024-05-09T15:43:18.668Z,20.10
2024-05-09T15:45:46.056Z,20.10
2024-05-09T15:48:16.062Z,20.20
2024-05-09T15:50:43.540Z,20.20
2024-05-09T15:53:13.942Z,20.20
2024-05-09T15:55:41.740Z,20.30
2024-05-09T15:58:12.404Z,20.40
2024-05-09T16:00:44.756Z,20.40
2024-05-09T16:03:16.454Z,20.40
2024-05-09T16:05:44.610Z,20.50
2024-05-09T16:08:15.485Z,20.50
2024-05-09T16:10:45.889Z,20.40
2024-05-09T16:13:17.454Z,20.40
2024-05-09T16:15:47.755Z,20.40
2024-05-09T16:18:18.091Z,20.40
2024-05-09T16:20:47.484Z,20.40
2024-05-09T16:23:19.456Z,20.40
2024-05-09T16:25:48.228Z,20.50
2024-05-09T16:28:19.202Z,20.50
2024-05-09T16:30:49.075Z,20.50
2024-05-09T16:33:23.491Z,20.40
2024-05-09T16:35:50.730Z,20.40
2024-05-09T16:38:20.640Z,20.20
2024-05-09T16:40:48.029Z,20.20
2024-05-09T16:43:18.063Z,20.20
2024-05-09T16:45:45.283Z,20.00
2024-05-09T16:48:17.673Z,20.00
2024-05-09T16:50:44.880Z,19.90
2024-05-09T16:53:14.801Z,19.80
2024-05-09T16:55:41.870Z,19.70
2024-05-09T16:58:12.372Z,19.60
2024-05-09T17:00:42.803Z,19.50
2024-05-09T17:03:17.716Z,19.40
2024-05-09T17:05:46.853Z,19.30
2024-05-09T17:08:19.801Z,19.20
2024-05-09T17:10:48.974Z,19.20
2024-05-09T17:13:19.854Z,19.10
2024-05-09T17:15:50.457Z,19.00
2024-05-09T17:18:23.135Z,18.90
2024-05-09T17:20:51.420Z,18.80
2024-05-09T17:23:21.279Z,18.70
2024-05-09T17:25:50.956Z,18.50
2024-05-09T17:28:18.392Z,18.30
2024-05-09T17:30:48.544Z,18.10
2024-05-09T17:33:15.917Z,18.00
2024-05-09T17:35:50.506Z,17.80
2024-05-09T17:38:18.388Z,17.70
2024-05-09T17:40:48.081Z,17.50
2024-05-09T17:43:15.361Z,17.40
2024-05-09T17:45:45.147Z,17.20
2024-05-09T17:48:13.047Z,17.10
2024-05-09T17:50:43.016Z,17.00
2024-05-09T17:53:12.723Z,16.90
2024-05-09T17:55:42.807Z,16.90
2024-05-09T17:58:11.855Z,16.90
2024-05-09T18:00:42.730Z,16.80
2024-05-09T18:03:12.230Z,16.80
2024-05-09T18:05:44.426Z,16.80
2024-05-09T18:08:15.034Z,16.80
2024-05-09T18:10:44.897Z,16.80
2024-05-09T18:13:13.048Z,16.80
2024-05-09T18:15:43.685Z,16.80
2024-05-09T18:18:11.567Z,16.70
2024-05-09T18:20:44.926Z,16.70
2024-05-09T18:23:18.307Z,16.70
2024-05-09T18:25:48.745Z,16.60
2024-05-09T18:28:16.994Z,16.60
2024-05-09T18:30:47.327Z,16.50
2024-05-09T18:33:15.071Z,16.50
2024-05-09T18:35:45.846Z,16.40
2024-05-09T18:38:15.767Z,16.30
2024-05-09T18:40:48.355Z,16.30
2024-05-09T18:43:16.758Z,16.20
2024-05-09T18:45:47.357Z,16.20
2024-05-09T18:48:15.300Z,16.10
2024-05-09T18:50:45.288Z,16.10
2024-05-09T18:53:14.310Z,16.00
2024-05-09T18:55:46.619Z,16.00
2024-05-09T18:58:13.803Z,15.90
2024-05-09T19:00:46.023Z,15.80
2024-05-09T19:03:16.037Z,15.70
2024-05-09T19:05:46.585Z,15.70
2024-05-09T19:08:14.776Z,15.60
2024-05-09T19:10:48.062Z,15.50
2024-05-09T19:13:15.640Z,15.40
2024-05-09T19:15:45.529Z,15.40
2024-05-09T19:18:14.052Z,15.30
2024-05-09T19:20:44.616Z,15.20
2024-05-09T19:23:12.149Z,15.20
2024-05-09T19:25:42.070Z,15.10
2024-05-09T19:28:11.873Z,15.00
2024-05-09T19:30:42.907Z,14.90
2024-05-09T19:33:12.450Z,14.80
2024-05-09T19:35:43.631Z,14.70
2024-05-09T19:38:11.387Z,14.70
2024-05-09T19:40:41.228Z,14.60
2024-05-09T19:43:08.625Z,14.60
2024-05-09T19:45:41.193Z,14.50
2024-05-09T19:48:11.450Z,14.50
2024-05-09T19:50:43.186Z,14.40
2024-05-09T19:53:15.055Z,14.40
2024-05-09T19:55:42.493Z,14.40
2024-05-09T19:58:13.276Z,14.30
2024-05-09T20:00:44.446Z,14.30
2024-05-09T20:03:16.190Z,14.20
2024-05-09T20:05:46.273Z,14.20
2024-05-09T20:08:16.767Z,14.10
2024-05-09T20:10:44.009Z,14.00
2024-05-09T20:13:13.884Z,13.90
2024-05-09T20:15:43.883Z,13.90
2024-05-09T20:18:14.319Z,13.80
2024-05-09T20:20:43.655Z,13.70
2024-05-09T20:23:15.163Z,13.70
2024-05-09T20:25:42.789Z,13.70
2024-05-09T20:28:12.687Z,13.50
2024-05-09T20:30:40.028Z,13.40
2024-05-09T20:33:14.157Z,13.40
2024-05-09T20:35:41.493Z,13.30
2024-05-09T20:38:11.219Z,13.30
2024-05-09T20:40:39.619Z,13.20
2024-05-09T20:43:10.856Z,13.20
2024-05-09T20:45:38.785Z,13.20
2024-05-09T20:48:12.882Z,13.10
2024-05-09T20:50:42.492Z,13.20
2024-05-09T20:53:14.584Z,13.10
2024-05-09T20:55:42.970Z,13.10
2024-05-09T20:58:13.306Z,13.10
2024-05-09T21:00:43.969Z,13.00
2024-05-09T21:03:18.462Z,13.00
2024-05-09T21:05:46.806Z,13.10
2024-05-09T21:08:16.996Z,13.00
2024-05-09T21:10:44.190Z,13.00
2024-05-09T21:13:14.210Z,12.90
2024-05-09T21:15:41.544Z,12.90
2024-05-09T21:18:11.500Z,12.90
2024-05-09T21:20:41.363Z,12.90
2024-05-09T21:23:11.269Z,12.80
2024-05-09T21:25:38.422Z,12.80
2024-05-09T21:28:08.529Z,12.70
2024-05-09T21:30:41.762Z,12.70
2024-05-09T21:33:14.626Z,12.60
2024-05-09T21:35:45.412Z,12.60
2024-05-09T21:38:16.097Z,12.60
2024-05-09T21:40:43.741Z,12.60
2024-05-09T21:43:14.300Z,12.60
2024-05-09T21:45:41.939Z,12.50
2024-05-09T21:48:11.937Z,12.40
2024-05-09T21:50:41.562Z,12.30
2024-05-09T21:53:14.983Z,12.30
2024-05-09T21:55:42.171Z,12.20
2024-05-09T21:58:11.984Z,12.10
2024-05-09T22:00:40.712Z,12.10
2024-05-09T22:03:12.091Z,12.00
2024-05-09T22:05:42.165Z,12.00
2024-05-09T22:08:14.894Z,12.00
2024-05-09T22:10:42.418Z,11.90
2024-05-09T22:13:12.725Z,12.00
2024-05-09T22:15:40.780Z,11.90
2024-05-09T22:18:11.765Z,11.90
2024-05-09T22:20:44.665Z,11.90
2024-05-09T22:23:18.354Z,11.90
2024-05-09T22:25:45.537Z,11.90
2024-05-09T22:28:16.931Z,11.90
2024-05-09T22:30:46.075Z,11.90
2024-05-09T22:33:17.106Z,11.90
2024-05-09T22:35:44.432Z,12.00
2024-05-09T22:38:14.134Z,12.00
2024-05-09T22:40:48.352Z,12.00
2024-05-09T22:43:23.414Z,12.10
2024-05-09T22:45:52.263Z,12.10
2024-05-09T22:48:23.680Z,12.10
2024-05-09T22:50:51.341Z,12.10
2024-05-09T22:53:21.193Z,12.00
2024-05-09T22:55:51.002Z,12.00
2024-05-09T22:58:20.904Z,12.00
2024-05-09T23:00:48.255Z,12.00
2024-05-09T23:03:21.252Z,12.00
2024-05-09T23:05:48.867Z,11.90
2024-05-09T23:08:18.598Z,11.90
2024-05-09T23:10:45.975Z,11.90
2024-05-09T23:13:18.547Z,11.90
2024-05-09T23:15:45.713Z,11.80
2024-05-09T23:18:15.547Z,11.70
2024-05-09T23:20:42.820Z,11.80
2024-05-09T23:23:12.967Z,11.70
2024-05-09T23:25:41.455Z,11.70
2024-05-09T23:28:11.695Z,11.70
2024-05-09T23:30:42.358Z,11.60
2024-05-09T23:33:14.233Z,11.50
2024-05-09T23:35:42.385Z,11.50
2024-05-09T23:38:12.097Z,11.50
2024-05-09T23:40:41.201Z,11.50
2024-05-09T23:43:13.135Z,11.50
2024-05-09T23:45:43.857Z,11.50
2024-05-09T23:48:14.005Z,11.40
2024-05-09T23:50:41.753Z,11.40
2024-05-09T23:53:11.682Z,11.40
2024-05-09T23:55:39.349Z,11.30
2024-05-09T23:58:09.644Z,11.40
